sensor_id;sensor_type;location;lat;lon;timestamp;P1;durP1;ratioP1;P2;durP2;ratioP2
57443;SDS011;43289;52.962;6.196;2022-10-17T00:02:19;14.15;;;4.88;;
57443;SDS011;43289;52.962;6.196;2022-10-17T00:04:45;11.80;;;4.22;;
57443;SDS011;43289;52.962;6.196;2022-10-17T00:07:11;13.27;;;4.93;;
57443;SDS011;43289;52.962;6.196;2022-10-17T00:09:38;11.80;;;4.10;;
57443;SDS011;43289;52.962;6.196;2022-10-17T00:12:06;9.15;;;4.03;;
57443;SDS011;43289;52.962;6.196;2022-10-17T00:14:32;8.13;;;3.78;;
57443;SDS011;43289;52.962;6.196;2022-10-17T00:16:58;17.77;;;4.18;;
57443;SDS011;43289;52.962;6.196;2022-10-17T00:19:24;12.60;;;4.43;;
57443;SDS011;43289;52.962;6.196;2022-10-17T00:21:51;12.05;;;4.65;;
57443;SDS011;43289;52.962;6.196;2022-10-17T00:24:18;9.95;;;4.80;;
57443;SDS011;43289;52.962;6.196;2022-10-17T00:26:44;10.40;;;4.32;;
57443;SDS011;43289;52.962;6.196;2022-10-17T00:29:11;10.93;;;4.00;;
57443;SDS011;43289;52.962;6.196;2022-10-17T00:31:37;13.05;;;5.18;;
57443;SDS011;43289;52.962;6.196;2022-10-17T00:34:03;11.07;;;4.57;;
57443;SDS011;43289;52.962;6.196;2022-10-17T00:36:29;7.63;;;3.53;;
57443;SDS011;43289;52.962;6.196;2022-10-17T00:38:56;9.95;;;5.13;;
57443;SDS011;43289;52.962;6.196;2022-10-17T00:41:28;11.55;;;3.97;;
57443;SDS011;43289;52.962;6.196;2022-10-17T00:43:59;9.75;;;4.00;;
57443;SDS011;43289;52.962;6.196;2022-10-17T00:46:35;8.55;;;4.20;;
57443;SDS011;43289;52.962;6.196;2022-10-17T00:49:05;8.93;;;4.07;;
57443;SDS011;43289;52.962;6.196;2022-10-17T00:51:36;9.88;;;4.72;;
57443;SDS011;43289;52.962;6.196;2022-10-17T00:54:03;12.25;;;4.60;;
57443;SDS011;43289;52.962;6.196;2022-10-17T00:56:29;9.77;;;5.38;;
57443;SDS011;43289;52.962;6.196;2022-10-17T00:58:56;11.30;;;4.53;;
57443;SDS011;43289;52.962;6.196;2022-10-17T01:01:22;12.65;;;4.53;;
57443;SDS011;43289;52.962;6.196;2022-10-17T01:03:48;12.15;;;4.88;;
57443;SDS011;43289;52.962;6.196;2022-10-17T01:06:14;9.57;;;5.07;;
57443;SDS011;43289;52.962;6.196;2022-10-17T01:08:43;8.25;;;4.32;;
57443;SDS011;43289;52.962;6.196;2022-10-17T01:16:33;8.18;;;5.25;;
57443;SDS011;43289;52.962;6.196;2022-10-17T01:21:36;8.30;;;4.63;;
57443;SDS011;43289;52.962;6.196;2022-10-17T01:24:20;9.80;;;5.03;;
57443;SDS011;43289;52.962;6.196;2022-10-17T01:27:03;8.85;;;5.28;;
57443;SDS011;43289;52.962;6.196;2022-10-17T01:29:44;13.30;;;5.30;;
57443;SDS011;43289;52.962;6.196;2022-10-17T01:32:23;12.02;;;4.97;;
57443;SDS011;43289;52.962;6.196;2022-10-17T01:34:57;11.77;;;5.05;;
57443;SDS011;43289;52.962;6.196;2022-10-17T01:37:26;13.15;;;4.97;;
57443;SDS011;43289;52.962;6.196;2022-10-17T01:40:08;10.20;;;4.65;;
57443;SDS011;43289;52.962;6.196;2022-10-17T01:42:36;10.73;;;4.82;;
57443;SDS011;43289;52.962;6.196;2022-10-17T01:45:12;9.23;;;4.85;;
57443;SDS011;43289;52.962;6.196;2022-10-17T01:47:39;10.98;;;5.55;;
57443;SDS011;43289;52.962;6.196;2022-10-17T01:50:28;8.90;;;4.68;;
57443;SDS011;43289;52.962;6.196;2022-10-17T01:52:52;9.50;;;4.90;;
57443;SDS011;43289;52.962;6.196;2022-10-17T01:55:21;14.05;;;5.60;;
57443;SDS011;43289;52.962;6.196;2022-10-17T01:57:56;11.52;;;6.35;;
57443;SDS011;43289;52.962;6.196;2022-10-17T02:00:24;14.73;;;5.75;;
57443;SDS011;43289;52.962;6.196;2022-10-17T02:02:52;9.10;;;5.88;;
57443;SDS011;43289;52.962;6.196;2022-10-17T02:05:30;10.02;;;5.60;;
57443;SDS011;43289;52.962;6.196;2022-10-17T02:07:56;9.75;;;5.70;;
57443;SDS011;43289;52.962;6.196;2022-10-17T02:10:35;12.68;;;5.65;;
57443;SDS011;43289;52.962;6.196;2022-10-17T02:13:05;8.05;;;5.10;;
57443;SDS011;43289;52.962;6.196;2022-10-17T02:18:28;11.27;;;6.00;;
57443;SDS011;43289;52.962;6.196;2022-10-17T02:21:02;10.07;;;5.93;;
57443;SDS011;43289;52.962;6.196;2022-10-17T02:23:50;11.15;;;6.80;;
57443;SDS011;43289;52.962;6.196;2022-10-17T02:26:20;8.50;;;5.82;;
57443;SDS011;43289;52.962;6.196;2022-10-17T02:31:16;11.95;;;7.13;;
57443;SDS011;43289;52.962;6.196;2022-10-17T02:33:49;10.45;;;5.75;;
57443;SDS011;43289;52.962;6.196;2022-10-17T02:36:20;12.88;;;7.15;;
57443;SDS011;43289;52.962;6.196;2022-10-17T02:38:47;9.45;;;6.18;;
57443;SDS011;43289;52.962;6.196;2022-10-17T02:41:15;11.90;;;6.60;;
57443;SDS011;43289;52.962;6.196;2022-10-17T02:43:42;9.60;;;6.20;;
57443;SDS011;43289;52.962;6.196;2022-10-17T02:46:09;11.52;;;7.38;;
57443;SDS011;43289;52.962;6.196;2022-10-17T02:48:37;8.38;;;7.28;;
57443;SDS011;43289;52.962;6.196;2022-10-17T02:54:30;11.10;;;7.47;;
57443;SDS011;43289;52.962;6.196;2022-10-17T02:57:01;13.20;;;7.45;;
57443;SDS011;43289;52.962;6.196;2022-10-17T02:59:29;12.82;;;8.15;;
57443;SDS011;43289;52.962;6.196;2022-10-17T03:01:56;11.77;;;8.00;;
57443;SDS011;43289;52.962;6.196;2022-10-17T03:04:22;9.27;;;7.40;;
57443;SDS011;43289;52.962;6.196;2022-10-17T03:06:48;12.88;;;9.60;;
57443;SDS011;43289;52.962;6.196;2022-10-17T03:09:14;12.27;;;8.88;;
57443;SDS011;43289;52.962;6.196;2022-10-17T03:11:40;10.35;;;8.07;;
57443;SDS011;43289;52.962;6.196;2022-10-17T03:14:06;11.70;;;8.02;;
57443;SDS011;43289;52.962;6.196;2022-10-17T03:16:33;11.75;;;7.82;;
57443;SDS011;43289;52.962;6.196;2022-10-17T03:18:59;12.07;;;8.23;;
57443;SDS011;43289;52.962;6.196;2022-10-17T03:21:25;12.82;;;9.85;;
57443;SDS011;43289;52.962;6.196;2022-10-17T03:23:51;12.82;;;8.75;;
57443;SDS011;43289;52.962;6.196;2022-10-17T03:26:17;12.00;;;7.90;;
57443;SDS011;43289;52.962;6.196;2022-10-17T03:28:43;15.02;;;9.38;;
57443;SDS011;43289;52.962;6.196;2022-10-17T03:31:09;12.43;;;9.00;;
57443;SDS011;43289;52.962;6.196;2022-10-17T03:33:36;11.80;;;8.32;;
57443;SDS011;43289;52.962;6.196;2022-10-17T03:36:06;12.90;;;10.23;;
57443;SDS011;43289;52.962;6.196;2022-10-17T03:38:32;14.00;;;9.30;;
57443;SDS011;43289;52.962;6.196;2022-10-17T03:40:58;15.80;;;11.48;;
57443;SDS011;43289;52.962;6.196;2022-10-17T03:43:24;16.48;;;10.38;;
57443;SDS011;43289;52.962;6.196;2022-10-17T03:45:50;14.43;;;9.98;;
57443;SDS011;43289;52.962;6.196;2022-10-17T03:48:16;13.82;;;9.45;;
57443;SDS011;43289;52.962;6.196;2022-10-17T03:50:42;14.85;;;10.73;;
57443;SDS011;43289;52.962;6.196;2022-10-17T03:53:08;14.05;;;10.57;;
57443;SDS011;43289;52.962;6.196;2022-10-17T03:55:34;12.48;;;9.60;;
57443;SDS011;43289;52.962;6.196;2022-10-17T03:58:00;14.45;;;11.07;;
57443;SDS011;43289;52.962;6.196;2022-10-17T04:03:49;12.70;;;10.27;;
57443;SDS011;43289;52.962;6.196;2022-10-17T04:06:16;15.77;;;10.63;;
57443;SDS011;43289;52.962;6.196;2022-10-17T04:08:42;12.35;;;10.05;;
57443;SDS011;43289;52.962;6.196;2022-10-17T04:11:09;13.85;;;10.00;;
57443;SDS011;43289;52.962;6.196;2022-10-17T04:13:36;14.32;;;10.63;;
57443;SDS011;43289;52.962;6.196;2022-10-17T04:16:03;14.20;;;10.60;;
57443;SDS011;43289;52.962;6.196;2022-10-17T04:18:29;18.15;;;10.77;;
57443;SDS011;43289;52.962;6.196;2022-10-17T04:20:56;16.60;;;10.32;;
57443;SDS011;43289;52.962;6.196;2022-10-17T04:23:22;16.90;;;10.13;;
57443;SDS011;43289;52.962;6.196;2022-10-17T04:25:48;14.77;;;10.98;;
57443;SDS011;43289;52.962;6.196;2022-10-17T04:28:14;13.85;;;10.63;;
57443;SDS011;43289;52.962;6.196;2022-10-17T04:30:40;19.40;;;10.35;;
57443;SDS011;43289;52.962;6.196;2022-10-17T04:33:06;16.02;;;11.85;;
57443;SDS011;43289;52.962;6.196;2022-10-17T04:35:32;13.27;;;10.45;;
57443;SDS011;43289;52.962;6.196;2022-10-17T04:37:58;15.82;;;11.70;;
57443;SDS011;43289;52.962;6.196;2022-10-17T04:40:24;17.65;;;10.68;;
57443;SDS011;43289;52.962;6.196;2022-10-17T04:42:50;14.50;;;10.75;;
57443;SDS011;43289;52.962;6.196;2022-10-17T04:45:16;14.35;;;11.25;;
57443;SDS011;43289;52.962;6.196;2022-10-17T04:47:42;14.35;;;10.77;;
57443;SDS011;43289;52.962;6.196;2022-10-17T04:50:08;15.80;;;11.00;;
57443;SDS011;43289;52.962;6.196;2022-10-17T04:52:34;15.23;;;11.07;;
57443;SDS011;43289;52.962;6.196;2022-10-17T04:55:04;16.30;;;11.18;;
57443;SDS011;43289;52.962;6.196;2022-10-17T04:57:33;15.27;;;11.00;;
57443;SDS011;43289;52.962;6.196;2022-10-17T04:59:59;16.77;;;12.30;;
57443;SDS011;43289;52.962;6.196;2022-10-17T05:02:25;13.57;;;10.65;;
57443;SDS011;43289;52.962;6.196;2022-10-17T05:04:51;16.17;;;12.35;;
57443;SDS011;43289;52.962;6.196;2022-10-17T05:07:17;14.82;;;11.20;;
57443;SDS011;43289;52.962;6.196;2022-10-17T05:09:43;14.88;;;12.50;;
57443;SDS011;43289;52.962;6.196;2022-10-17T05:12:09;17.02;;;11.23;;
57443;SDS011;43289;52.962;6.196;2022-10-17T05:14:35;16.92;;;12.20;;
57443;SDS011;43289;52.962;6.196;2022-10-17T05:17:01;14.45;;;11.57;;
57443;SDS011;43289;52.962;6.196;2022-10-17T05:19:27;15.25;;;10.55;;
57443;SDS011;43289;52.962;6.196;2022-10-17T05:21:54;14.93;;;10.60;;
57443;SDS011;43289;52.962;6.196;2022-10-17T05:24:20;12.25;;;10.02;;
57443;SDS011;43289;52.962;6.196;2022-10-17T05:27:02;15.90;;;11.45;;
57443;SDS011;43289;52.962;6.196;2022-10-17T05:29:28;14.40;;;11.25;;
57443;SDS011;43289;52.962;6.196;2022-10-17T05:31:54;14.88;;;10.57;;
57443;SDS011;43289;52.962;6.196;2022-10-17T05:37:19;18.15;;;12.80;;
57443;SDS011;43289;52.962;6.196;2022-10-17T05:39:45;13.50;;;10.90;;
57443;SDS011;43289;52.962;6.196;2022-10-17T05:42:15;15.68;;;10.30;;
57443;SDS011;43289;52.962;6.196;2022-10-17T05:44:41;15.45;;;11.90;;
57443;SDS011;43289;52.962;6.196;2022-10-17T05:47:07;14.32;;;10.32;;
57443;SDS011;43289;52.962;6.196;2022-10-17T05:49:34;14.20;;;10.55;;
57443;SDS011;43289;52.962;6.196;2022-10-17T05:52:00;14.50;;;11.95;;
57443;SDS011;43289;52.962;6.196;2022-10-17T05:54:26;16.40;;;11.23;;
57443;SDS011;43289;52.962;6.196;2022-10-17T05:56:52;13.07;;;9.95;;
57443;SDS011;43289;52.962;6.196;2022-10-17T05:59:18;14.82;;;10.20;;
57443;SDS011;43289;52.962;6.196;2022-10-17T06:01:44;15.98;;;10.77;;
57443;SDS011;43289;52.962;6.196;2022-10-17T06:04:12;14.55;;;10.32;;
57443;SDS011;43289;52.962;6.196;2022-10-17T06:06:38;12.60;;;10.00;;
57443;SDS011;43289;52.962;6.196;2022-10-17T06:09:05;15.18;;;10.35;;
57443;SDS011;43289;52.962;6.196;2022-10-17T06:11:48;11.82;;;10.10;;
57443;SDS011;43289;52.962;6.196;2022-10-17T06:14:14;13.10;;;10.23;;
57443;SDS011;43289;52.962;6.196;2022-10-17T06:16:45;15.80;;;10.27;;
57443;SDS011;43289;52.962;6.196;2022-10-17T06:19:12;14.93;;;10.40;;
57443;SDS011;43289;52.962;6.196;2022-10-17T06:21:38;14.15;;;9.57;;
57443;SDS011;43289;52.962;6.196;2022-10-17T06:24:04;13.43;;;10.07;;
57443;SDS011;43289;52.962;6.196;2022-10-17T06:29:24;12.30;;;9.30;;
57443;SDS011;43289;52.962;6.196;2022-10-17T06:31:50;11.02;;;8.90;;
57443;SDS011;43289;52.962;6.196;2022-10-17T06:34:17;13.20;;;9.20;;
57443;SDS011;43289;52.962;6.196;2022-10-17T06:36:43;13.63;;;8.07;;
57443;SDS011;43289;52.962;6.196;2022-10-17T06:39:09;13.68;;;8.50;;
57443;SDS011;43289;52.962;6.196;2022-10-17T06:41:35;12.27;;;8.75;;
57443;SDS011;43289;52.962;6.196;2022-10-17T06:44:01;17.25;;;9.60;;
57443;SDS011;43289;52.962;6.196;2022-10-17T06:46:33;13.30;;;8.73;;
57443;SDS011;43289;52.962;6.196;2022-10-17T06:51:50;10.82;;;7.97;;
57443;SDS011;43289;52.962;6.196;2022-10-17T06:54:16;11.13;;;7.38;;
57443;SDS011;43289;52.962;6.196;2022-10-17T06:56:46;11.65;;;7.70;;
57443;SDS011;43289;52.962;6.196;2022-10-17T06:59:12;9.88;;;7.90;;
57443;SDS011;43289;52.962;6.196;2022-10-17T07:01:39;11.80;;;7.88;;
57443;SDS011;43289;52.962;6.196;2022-10-17T07:04:08;15.68;;;7.75;;
57443;SDS011;43289;52.962;6.196;2022-10-17T07:06:34;10.82;;;8.15;;
57443;SDS011;43289;52.962;6.196;2022-10-17T07:09:00;12.75;;;7.82;;
57443;SDS011;43289;52.962;6.196;2022-10-17T07:11:31;12.00;;;7.70;;
57443;SDS011;43289;52.962;6.196;2022-10-17T07:13:59;13.18;;;7.65;;
57443;SDS011;43289;52.962;6.196;2022-10-17T07:16:25;12.55;;;6.80;;
57443;SDS011;43289;52.962;6.196;2022-10-17T07:21:45;13.32;;;7.90;;
57443;SDS011;43289;52.962;6.196;2022-10-17T07:24:11;12.75;;;8.02;;
57443;SDS011;43289;52.962;6.196;2022-10-17T07:26:37;10.85;;;8.25;;
57443;SDS011;43289;52.962;6.196;2022-10-17T07:29:03;11.45;;;7.05;;
57443;SDS011;43289;52.962;6.196;2022-10-17T07:31:30;9.55;;;7.20;;
57443;SDS011;43289;52.962;6.196;2022-10-17T07:33:58;13.23;;;7.53;;
57443;SDS011;43289;52.962;6.196;2022-10-17T07:36:24;9.88;;;7.07;;
57443;SDS011;43289;52.962;6.196;2022-10-17T07:38:53;10.20;;;8.00;;
57443;SDS011;43289;52.962;6.196;2022-10-17T07:41:19;10.23;;;7.47;;
57443;SDS011;43289;52.962;6.196;2022-10-17T07:43:45;11.40;;;7.45;;
57443;SDS011;43289;52.962;6.196;2022-10-17T07:46:11;10.52;;;7.93;;
57443;SDS011;43289;52.962;6.196;2022-10-17T07:48:37;11.48;;;8.13;;
57443;SDS011;43289;52.962;6.196;2022-10-17T07:51:04;10.93;;;8.00;;
57443;SDS011;43289;52.962;6.196;2022-10-17T07:53:31;10.60;;;7.53;;
57443;SDS011;43289;52.962;6.196;2022-10-17T07:56:01;12.48;;;7.38;;
57443;SDS011;43289;52.962;6.196;2022-10-17T07:58:28;10.55;;;7.97;;
57443;SDS011;43289;52.962;6.196;2022-10-17T08:00:58;10.27;;;7.07;;
57443;SDS011;43289;52.962;6.196;2022-10-17T08:03:24;11.45;;;7.68;;
57443;SDS011;43289;52.962;6.196;2022-10-17T08:05:50;13.00;;;7.72;;
57443;SDS011;43289;52.962;6.196;2022-10-17T08:08:16;9.90;;;7.30;;
57443;SDS011;43289;52.962;6.196;2022-10-17T08:10:49;11.52;;;8.27;;
57443;SDS011;43289;52.962;6.196;2022-10-17T08:13:15;9.63;;;7.60;;
57443;SDS011;43289;52.962;6.196;2022-10-17T08:15:41;12.15;;;7.75;;
57443;SDS011;43289;52.962;6.196;2022-10-17T08:18:08;10.68;;;6.80;;
57443;SDS011;43289;52.962;6.196;2022-10-17T08:20:34;12.23;;;8.00;;
57443;SDS011;43289;52.962;6.196;2022-10-17T08:23:00;9.65;;;7.40;;
57443;SDS011;43289;52.962;6.196;2022-10-17T08:25:26;12.65;;;7.38;;
57443;SDS011;43289;52.962;6.196;2022-10-17T08:27:52;10.25;;;8.05;;
57443;SDS011;43289;52.962;6.196;2022-10-17T08:30:18;13.55;;;7.43;;
57443;SDS011;43289;52.962;6.196;2022-10-17T08:32:44;10.20;;;7.82;;
57443;SDS011;43289;52.962;6.196;2022-10-17T08:35:10;11.10;;;8.02;;
57443;SDS011;43289;52.962;6.196;2022-10-17T08:37:36;11.90;;;7.88;;
57443;SDS011;43289;52.962;6.196;2022-10-17T08:40:02;13.35;;;7.95;;
57443;SDS011;43289;52.962;6.196;2022-10-17T08:42:52;11.00;;;7.72;;
57443;SDS011;43289;52.962;6.196;2022-10-17T08:47:44;15.70;;;8.38;;
57443;SDS011;43289;52.962;6.196;2022-10-17T08:50:20;9.70;;;7.10;;
57443;SDS011;43289;52.962;6.196;2022-10-17T08:52:53;10.57;;;7.47;;
57443;SDS011;43289;52.962;6.196;2022-10-17T08:55:28;10.77;;;7.85;;
57443;SDS011;43289;52.962;6.196;2022-10-17T08:57:57;11.13;;;7.07;;
57443;SDS011;43289;52.962;6.196;2022-10-17T09:00:23;11.57;;;6.35;;
57443;SDS011;43289;52.962;6.196;2022-10-17T09:02:56;9.68;;;6.28;;
57443;SDS011;43289;52.962;6.196;2022-10-17T09:08:22;11.90;;;7.18;;
57443;SDS011;43289;52.962;6.196;2022-10-17T09:10:56;11.55;;;6.38;;
57443;SDS011;43289;52.962;6.196;2022-10-17T09:18:32;9.65;;;6.78;;
57443;SDS011;43289;52.962;6.196;2022-10-17T09:21:12;10.05;;;6.43;;
57443;SDS011;43289;52.962;6.196;2022-10-17T09:23:42;10.55;;;7.57;;
57443;SDS011;43289;52.962;6.196;2022-10-17T09:26:09;9.55;;;6.32;;
57443;SDS011;43289;52.962;6.196;2022-10-17T09:28:37;13.63;;;7.20;;
57443;SDS011;43289;52.962;6.196;2022-10-17T09:31:20;9.88;;;6.72;;
57443;SDS011;43289;52.962;6.196;2022-10-17T09:33:49;8.75;;;7.05;;
57443;SDS011;43289;52.962;6.196;2022-10-17T09:36:19;10.07;;;7.45;;
57443;SDS011;43289;52.962;6.196;2022-10-17T09:38:48;12.45;;;6.88;;
57443;SDS011;43289;52.962;6.196;2022-10-17T09:41:17;10.93;;;7.65;;
57443;SDS011;43289;52.962;6.196;2022-10-17T09:43:44;12.05;;;7.30;;
57443;SDS011;43289;52.962;6.196;2022-10-17T09:46:24;15.85;;;8.95;;
57443;SDS011;43289;52.962;6.196;2022-10-17T09:52:16;11.82;;;7.70;;
57443;SDS011;43289;52.962;6.196;2022-10-17T09:54:45;14.23;;;8.40;;
57443;SDS011;43289;52.962;6.196;2022-10-17T09:57:12;11.95;;;8.45;;
57443;SDS011;43289;52.962;6.196;2022-10-17T10:07:22;16.90;;;9.88;;
57443;SDS011;43289;52.962;6.196;2022-10-17T10:09:56;16.15;;;9.50;;
57443;SDS011;43289;52.962;6.196;2022-10-17T10:15:51;14.88;;;9.93;;
57443;SDS011;43289;52.962;6.196;2022-10-17T10:21:01;16.45;;;10.70;;
57443;SDS011;43289;52.962;6.196;2022-10-17T10:23:27;21.27;;;9.68;;
57443;SDS011;43289;52.962;6.196;2022-10-17T10:25:55;21.98;;;11.88;;
57443;SDS011;43289;52.962;6.196;2022-10-17T10:28:25;19.17;;;11.32;;
57443;SDS011;43289;52.962;6.196;2022-10-17T10:30:52;18.90;;;10.60;;
57443;SDS011;43289;52.962;6.196;2022-10-17T10:33:19;16.75;;;10.27;;
57443;SDS011;43289;52.962;6.196;2022-10-17T10:35:54;20.42;;;11.00;;
57443;SDS011;43289;52.962;6.196;2022-10-17T10:38:20;21.48;;;11.95;;
57443;SDS011;43289;52.962;6.196;2022-10-17T10:40:48;16.42;;;10.77;;
57443;SDS011;43289;52.962;6.196;2022-10-17T10:45:47;16.25;;;10.70;;
57443;SDS011;43289;52.962;6.196;2022-10-17T10:50:55;16.83;;;10.60;;
57443;SDS011;43289;52.962;6.196;2022-10-17T10:53:31;16.30;;;9.85;;
57443;SDS011;43289;52.962;6.196;2022-10-17T10:55:59;25.98;;;13.13;;
57443;SDS011;43289;52.962;6.196;2022-10-17T10:58:31;19.08;;;11.40;;
57443;SDS011;43289;52.962;6.196;2022-10-17T11:01:01;18.27;;;10.18;;
57443;SDS011;43289;52.962;6.196;2022-10-17T11:03:29;15.60;;;10.70;;
57443;SDS011;43289;52.962;6.196;2022-10-17T11:06:16;18.85;;;11.68;;
57443;SDS011;43289;52.962;6.196;2022-10-17T11:08:48;17.02;;;10.95;;
57443;SDS011;43289;52.962;6.196;2022-10-17T11:11:16;18.15;;;10.73;;
57443;SDS011;43289;52.962;6.196;2022-10-17T11:16:39;19.38;;;11.73;;
57443;SDS011;43289;52.962;6.196;2022-10-17T11:21:35;17.25;;;10.50;;
57443;SDS011;43289;52.962;6.196;2022-10-17T11:24:13;16.42;;;9.60;;
57443;SDS011;43289;52.962;6.196;2022-10-17T11:27:02;20.67;;;10.65;;
57443;SDS011;43289;52.962;6.196;2022-10-17T11:29:27;19.63;;;10.05;;
57443;SDS011;43289;52.962;6.196;2022-10-17T11:31:56;19.30;;;11.52;;
57443;SDS011;43289;52.962;6.196;2022-10-17T11:34:26;20.20;;;10.30;;
57443;SDS011;43289;52.962;6.196;2022-10-17T11:36:58;21.02;;;11.10;;
57443;SDS011;43289;52.962;6.196;2022-10-17T11:39:29;18.23;;;11.05;;
57443;SDS011;43289;52.962;6.196;2022-10-17T11:41:57;15.88;;;10.07;;
57443;SDS011;43289;52.962;6.196;2022-10-17T11:44:27;14.90;;;9.73;;
57443;SDS011;43289;52.962;6.196;2022-10-17T11:47:06;14.18;;;9.05;;
57443;SDS011;43289;52.962;6.196;2022-10-17T11:52:40;15.82;;;9.27;;
57443;SDS011;43289;52.962;6.196;2022-10-17T11:55:13;11.00;;;8.38;;
57443;SDS011;43289;52.962;6.196;2022-10-17T12:00:29;13.43;;;8.38;;
57443;SDS011;43289;52.962;6.196;2022-10-17T12:03:03;13.93;;;7.72;;
57443;SDS011;43289;52.962;6.196;2022-10-17T12:08:19;11.55;;;7.53;;
57443;SDS011;43289;52.962;6.196;2022-10-17T12:11:00;12.05;;;6.88;;
57443;SDS011;43289;52.962;6.196;2022-10-17T12:15:54;11.70;;;8.15;;
57443;SDS011;43289;52.962;6.196;2022-10-17T12:18:22;14.88;;;8.07;;
57443;SDS011;43289;52.962;6.196;2022-10-17T12:20:56;12.43;;;6.97;;
57443;SDS011;43289;52.962;6.196;2022-10-17T12:23:26;11.40;;;6.90;;
57443;SDS011;43289;52.962;6.196;2022-10-17T12:25:53;9.07;;;6.03;;
57443;SDS011;43289;52.962;6.196;2022-10-17T12:28:27;7.15;;;4.97;;
57443;SDS011;43289;52.962;6.196;2022-10-17T12:31:05;7.78;;;4.97;;
57443;SDS011;43289;52.962;6.196;2022-10-17T12:33:35;7.65;;;3.80;;
57443;SDS011;43289;52.962;6.196;2022-10-17T12:38:47;5.93;;;3.70;;
57443;SDS011;43289;52.962;6.196;2022-10-17T12:41:15;7.80;;;4.03;;
57443;SDS011;43289;52.962;6.196;2022-10-17T12:43:45;7.57;;;3.90;;
57443;SDS011;43289;52.962;6.196;2022-10-17T12:46:11;6.43;;;3.55;;
57443;SDS011;43289;52.962;6.196;2022-10-17T12:51:08;7.85;;;3.80;;
57443;SDS011;43289;52.962;6.196;2022-10-17T12:56:18;6.68;;;3.53;;
57443;SDS011;43289;52.962;6.196;2022-10-17T12:58:45;7.13;;;4.00;;
57443;SDS011;43289;52.962;6.196;2022-10-17T13:01:21;7.50;;;4.20;;
57443;SDS011;43289;52.962;6.196;2022-10-17T13:03:53;8.48;;;4.43;;
57443;SDS011;43289;52.962;6.196;2022-10-17T13:06:20;7.35;;;4.35;;
57443;SDS011;43289;52.962;6.196;2022-10-17T13:08:48;8.05;;;4.65;;
57443;SDS011;43289;52.962;6.196;2022-10-17T13:11:21;7.60;;;4.93;;
57443;SDS011;43289;52.962;6.196;2022-10-17T13:13:48;8.38;;;4.80;;
57443;SDS011;43289;52.962;6.196;2022-10-17T13:21:57;9.20;;;4.60;;
57443;SDS011;43289;52.962;6.196;2022-10-17T13:24:32;7.68;;;4.60;;
57443;SDS011;43289;52.962;6.196;2022-10-17T13:26:58;6.40;;;4.00;;
57443;SDS011;43289;52.962;6.196;2022-10-17T13:29:25;11.40;;;5.22;;
57443;SDS011;43289;52.962;6.196;2022-10-17T13:31:57;8.93;;;4.93;;
57443;SDS011;43289;52.962;6.196;2022-10-17T13:34:35;8.23;;;5.03;;
57443;SDS011;43289;52.962;6.196;2022-10-17T13:37:03;8.95;;;3.80;;
57443;SDS011;43289;52.962;6.196;2022-10-17T13:39:33;6.78;;;2.92;;
57443;SDS011;43289;52.962;6.196;2022-10-17T13:42:00;6.63;;;3.03;;
57443;SDS011;43289;52.962;6.196;2022-10-17T13:44:27;6.15;;;3.60;;
57443;SDS011;43289;52.962;6.196;2022-10-17T13:46:53;6.50;;;2.80;;
57443;SDS011;43289;52.962;6.196;2022-10-17T13:49:33;5.28;;;3.00;;
57443;SDS011;43289;52.962;6.196;2022-10-17T13:52:02;7.70;;;3.55;;
57443;SDS011;43289;52.962;6.196;2022-10-17T13:57:25;7.88;;;3.25;;
57443;SDS011;43289;52.962;6.196;2022-10-17T14:00:18;4.82;;;2.70;;
57443;SDS011;43289;52.962;6.196;2022-10-17T14:02:39;6.05;;;3.30;;
57443;SDS011;43289;52.962;6.196;2022-10-17T14:10:25;4.50;;;2.42;;
57443;SDS011;43289;52.962;6.196;2022-10-17T14:12:52;5.28;;;2.65;;
57443;SDS011;43289;52.962;6.196;2022-10-17T14:15:18;6.28;;;3.10;;
57443;SDS011;43289;52.962;6.196;2022-10-17T14:17:52;6.10;;;2.90;;
57443;SDS011;43289;52.962;6.196;2022-10-17T14:20:18;5.55;;;2.50;;
57443;SDS011;43289;52.962;6.196;2022-10-17T14:22:45;8.88;;;2.40;;
57443;SDS011;43289;52.962;6.196;2022-10-17T14:25:31;4.90;;;2.38;;
57443;SDS011;43289;52.962;6.196;2022-10-17T14:30:38;5.28;;;2.20;;
57443;SDS011;43289;52.962;6.196;2022-10-17T14:33:06;4.72;;;2.63;;
57443;SDS011;43289;52.962;6.196;2022-10-17T14:35:33;5.97;;;2.85;;
57443;SDS011;43289;52.962;6.196;2022-10-17T14:38:00;7.35;;;2.80;;
57443;SDS011;43289;52.962;6.196;2022-10-17T14:40:31;6.97;;;2.75;;
57443;SDS011;43289;52.962;6.196;2022-10-17T14:42:59;5.43;;;2.63;;
57443;SDS011;43289;52.962;6.196;2022-10-17T14:45:30;8.30;;;3.30;;
57443;SDS011;43289;52.962;6.196;2022-10-17T14:48:02;5.90;;;2.95;;
57443;SDS011;43289;52.962;6.196;2022-10-17T14:50:31;6.93;;;3.05;;
57443;SDS011;43289;52.962;6.196;2022-10-17T14:53:05;6.38;;;2.72;;
57443;SDS011;43289;52.962;6.196;2022-10-17T14:55:32;6.50;;;2.63;;
57443;SDS011;43289;52.962;6.196;2022-10-17T14:57:58;4.78;;;3.33;;
57443;SDS011;43289;52.962;6.196;2022-10-17T15:00:24;6.20;;;2.80;;
57443;SDS011;43289;52.962;6.196;2022-10-17T15:02:51;6.25;;;3.08;;
57443;SDS011;43289;52.962;6.196;2022-10-17T15:05:18;5.68;;;2.53;;
57443;SDS011;43289;52.962;6.196;2022-10-17T15:07:44;4.03;;;2.22;;
57443;SDS011;43289;52.962;6.196;2022-10-17T15:10:29;5.20;;;2.53;;
57443;SDS011;43289;52.962;6.196;2022-10-17T15:12:56;7.75;;;3.13;;
57443;SDS011;43289;52.962;6.196;2022-10-17T15:15:26;6.82;;;2.70;;
57443;SDS011;43289;52.962;6.196;2022-10-17T15:17:52;5.45;;;2.50;;
57443;SDS011;43289;52.962;6.196;2022-10-17T15:20:18;6.53;;;3.13;;
57443;SDS011;43289;52.962;6.196;2022-10-17T15:22:46;5.78;;;2.85;;
57443;SDS011;43289;52.962;6.196;2022-10-17T15:25:12;7.47;;;2.55;;
57443;SDS011;43289;52.962;6.196;2022-10-17T15:27:38;6.03;;;3.05;;
57443;SDS011;43289;52.962;6.196;2022-10-17T15:30:05;8.90;;;3.03;;
57443;SDS011;43289;52.962;6.196;2022-10-17T15:32:39;7.30;;;3.40;;
57443;SDS011;43289;52.962;6.196;2022-10-17T15:35:05;6.78;;;3.00;;
57443;SDS011;43289;52.962;6.196;2022-10-17T15:37:36;5.60;;;2.88;;
57443;SDS011;43289;52.962;6.196;2022-10-17T15:40:03;7.78;;;2.85;;
57443;SDS011;43289;52.962;6.196;2022-10-17T15:42:30;7.47;;;3.13;;
57443;SDS011;43289;52.962;6.196;2022-10-17T15:44:56;4.22;;;3.03;;
57443;SDS011;43289;52.962;6.196;2022-10-17T15:47:32;9.32;;;3.03;;
57443;SDS011;43289;52.962;6.196;2022-10-17T15:50:02;7.10;;;3.25;;
57443;SDS011;43289;52.962;6.196;2022-10-17T15:52:31;5.18;;;3.20;;
57443;SDS011;43289;52.962;6.196;2022-10-17T15:54:57;8.30;;;3.60;;
57443;SDS011;43289;52.962;6.196;2022-10-17T15:57:28;6.15;;;3.00;;
57443;SDS011;43289;52.962;6.196;2022-10-17T15:59:54;6.65;;;3.15;;
57443;SDS011;43289;52.962;6.196;2022-10-17T16:02:22;9.02;;;4.25;;
57443;SDS011;43289;52.962;6.196;2022-10-17T16:04:48;7.05;;;3.65;;
57443;SDS011;43289;52.962;6.196;2022-10-17T16:07:15;7.90;;;3.55;;
57443;SDS011;43289;52.962;6.196;2022-10-17T16:09:42;6.05;;;3.55;;
57443;SDS011;43289;52.962;6.196;2022-10-17T16:12:16;5.28;;;3.28;;
57443;SDS011;43289;52.962;6.196;2022-10-17T16:14:42;8.27;;;3.38;;
57443;SDS011;43289;52.962;6.196;2022-10-17T16:17:11;7.35;;;4.38;;
57443;SDS011;43289;52.962;6.196;2022-10-17T16:19:38;8.15;;;3.75;;
57443;SDS011;43289;52.962;6.196;2022-10-17T16:22:04;8.98;;;3.58;;
57443;SDS011;43289;52.962;6.196;2022-10-17T16:24:30;7.15;;;3.85;;
57443;SDS011;43289;52.962;6.196;2022-10-17T16:26:57;8.95;;;3.92;;
57443;SDS011;43289;52.962;6.196;2022-10-17T16:29:24;9.20;;;4.07;;
57443;SDS011;43289;52.962;6.196;2022-10-17T16:31:50;7.10;;;3.42;;